sensor_id;sensor_type;location;lat;lon;timestamp;P1;durP1;ratioP1;P2;durP2;ratioP2
84381;SDS011;74572;51.834;5.820;2024-01-30T00:02:15;10.35;;;5.68;;
84381;SDS011;74572;51.834;5.820;2024-01-30T00:04:41;12.30;;;5.55;;
84381;SDS011;74572;51.834;5.820;2024-01-30T00:07:06;13.75;;;6.10;;
84381;SDS011;74572;51.834;5.820;2024-01-30T00:09:32;8.98;;;5.00;;
84381;SDS011;74572;51.834;5.820;2024-01-30T00:11:59;11.40;;;5.88;;
84381;SDS011;74572;51.834;5.820;2024-01-30T00:14:24;13.30;;;6.03;;
84381;SDS011;74572;51.834;5.820;2024-01-30T00:16:50;11.45;;;6.05;;
84381;SDS011;74572;51.834;5.820;2024-01-30T00:19:16;11.18;;;6.15;;
84381;SDS011;74572;51.834;5.820;2024-01-30T00:21:42;14.57;;;5.95;;
84381;SDS011;74572;51.834;5.820;2024-01-30T00:24:08;9.98;;;5.22;;
84381;SDS011;74572;51.834;5.820;2024-01-30T00:26:34;13.77;;;5.75;;
84381;SDS011;74572;51.834;5.820;2024-01-30T00:28:59;12.10;;;6.05;;
84381;SDS011;74572;51.834;5.820;2024-01-30T00:31:25;11.82;;;5.13;;
84381;SDS011;74572;51.834;5.820;2024-01-30T00:33:50;11.40;;;6.45;;
84381;SDS011;74572;51.834;5.820;2024-01-30T00:36:16;12.55;;;6.57;;
84381;SDS011;74572;51.834;5.820;2024-01-30T00:38:42;15.45;;;5.78;;
84381;SDS011;74572;51.834;5.820;2024-01-30T00:41:08;11.65;;;5.78;;
84381;SDS011;74572;51.834;5.820;2024-01-30T00:43:33;11.05;;;5.55;;
84381;SDS011;74572;51.834;5.820;2024-01-30T00:45:59;11.30;;;6.23;;
84381;SDS011;74572;51.834;5.820;2024-01-30T00:48:24;10.45;;;6.13;;
84381;SDS011;74572;51.834;5.820;2024-01-30T00:50:51;10.65;;;6.13;;
84381;SDS011;74572;51.834;5.820;2024-01-30T00:53:17;11.88;;;6.13;;
84381;SDS011;74572;51.834;5.820;2024-01-30T00:55:42;11.88;;;6.18;;
84381;SDS011;74572;51.834;5.820;2024-01-30T00:58:08;9.10;;;5.18;;
84381;SDS011;74572;51.834;5.820;2024-01-30T01:00:34;11.18;;;6.53;;
84381;SDS011;74572;51.834;5.820;2024-01-30T01:02:59;10.57;;;5.88;;
84381;SDS011;74572;51.834;5.820;2024-01-30T01:05:25;11.63;;;5.82;;
84381;SDS011;74572;51.834;5.820;2024-01-30T01:07:50;10.90;;;5.80;;
84381;SDS011;74572;51.834;5.820;2024-01-30T01:10:16;7.30;;;4.03;;
84381;SDS011;74572;51.834;5.820;2024-01-30T01:12:43;11.70;;;5.32;;
84381;SDS011;74572;51.834;5.820;2024-01-30T01:15:09;10.15;;;5.00;;
84381;SDS011;74572;51.834;5.820;2024-01-30T01:17:38;9.80;;;4.85;;
84381;SDS011;74572;51.834;5.820;2024-01-30T01:20:05;8.88;;;5.50;;
84381;SDS011;74572;51.834;5.820;2024-01-30T01:22:31;13.40;;;5.90;;
84381;SDS011;74572;51.834;5.820;2024-01-30T01:24:59;9.25;;;5.43;;
84381;SDS011;74572;51.834;5.820;2024-01-30T01:27:25;8.80;;;5.38;;
84381;SDS011;74572;51.834;5.820;2024-01-30T01:29:52;13.15;;;7.28;;
84381;SDS011;74572;51.834;5.820;2024-01-30T01:32:18;10.30;;;5.75;;
84381;SDS011;74572;51.834;5.820;2024-01-30T01:34:43;10.75;;;5.65;;
84381;SDS011;74572;51.834;5.820;2024-01-30T01:37:09;10.70;;;5.63;;
84381;SDS011;74572;51.834;5.820;2024-01-30T01:39:34;10.80;;;6.00;;
84381;SDS011;74572;51.834;5.820;2024-01-30T01:42:00;9.07;;;4.68;;
84381;SDS011;74572;51.834;5.820;2024-01-30T01:44:26;8.80;;;5.60;;
84381;SDS011;74572;51.834;5.820;2024-01-30T01:46:54;12.18;;;6.50;;
84381;SDS011;74572;51.834;5.820;2024-01-30T01:49:29;11.68;;;5.75;;
84381;SDS011;74572;51.834;5.820;2024-01-30T01:51:55;10.30;;;5.70;;
84381;SDS011;74572;51.834;5.820;2024-01-30T01:54:23;10.20;;;6.03;;
84381;SDS011;74572;51.834;5.820;2024-01-30T01:56:50;10.82;;;5.10;;
84381;SDS011;74572;51.834;5.820;2024-01-30T01:59:20;9.73;;;5.60;;
84381;SDS011;74572;51.834;5.820;2024-01-30T02:01:46;9.90;;;5.90;;
84381;SDS011;74572;51.834;5.820;2024-01-30T02:04:14;9.85;;;5.43;;
84381;SDS011;74572;51.834;5.820;2024-01-30T02:06:40;9.43;;;5.25;;
84381;SDS011;74572;51.834;5.820;2024-01-30T02:09:06;9.93;;;5.07;;
84381;SDS011;74572;51.834;5.820;2024-01-30T02:11:34;14.07;;;6.22;;
84381;SDS011;74572;51.834;5.820;2024-01-30T02:14:04;10.45;;;5.97;;
84381;SDS011;74572;51.834;5.820;2024-01-30T02:16:30;12.07;;;5.78;;
84381;SDS011;74572;51.834;5.820;2024-01-30T02:18:56;12.20;;;5.82;;
84381;SDS011;74572;51.834;5.820;2024-01-30T02:21:21;6.67;;;3.83;;
84381;SDS011;74572;51.834;5.820;2024-01-30T02:23:47;11.20;;;6.20;;
84381;SDS011;74572;51.834;5.820;2024-01-30T02:26:13;10.77;;;6.13;;
84381;SDS011;74572;51.834;5.820;2024-01-30T02:28:39;12.73;;;5.38;;
84381;SDS011;74572;51.834;5.820;2024-01-30T02:31:08;10.80;;;6.28;;
84381;SDS011;74572;51.834;5.820;2024-01-30T02:33:33;14.30;;;6.57;;
84381;SDS011;74572;51.834;5.820;2024-01-30T02:35:59;10.45;;;6.00;;
84381;SDS011;74572;51.834;5.820;2024-01-30T02:38:24;7.97;;;5.28;;
84381;SDS011;74572;51.834;5.820;2024-01-30T02:40:51;11.02;;;5.95;;
84381;SDS011;74572;51.834;5.820;2024-01-30T02:43:17;13.05;;;5.65;;
84381;SDS011;74572;51.834;5.820;2024-01-30T02:45:42;11.23;;;5.60;;
84381;SDS011;74572;51.834;5.820;2024-01-30T02:48:08;9.13;;;4.93;;
84381;SDS011;74572;51.834;5.820;2024-01-30T02:50:33;9.65;;;4.00;;
84381;SDS011;74572;51.834;5.820;2024-01-30T02:52:59;8.57;;;4.53;;
84381;SDS011;74572;51.834;5.820;2024-01-30T02:55:25;9.60;;;5.13;;
84381;SDS011;74572;51.834;5.820;2024-01-30T02:57:50;10.60;;;6.13;;
84381;SDS011;74572;51.834;5.820;2024-01-30T03:00:16;9.02;;;5.38;;
84381;SDS011;74572;51.834;5.820;2024-01-30T03:02:42;10.55;;;5.38;;
84381;SDS011;74572;51.834;5.820;2024-01-30T03:05:07;9.05;;;4.57;;
84381;SDS011;74572;51.834;5.820;2024-01-30T03:07:33;9.23;;;5.25;;
84381;SDS011;74572;51.834;5.820;2024-01-30T03:09:59;7.70;;;5.00;;
84381;SDS011;74572;51.834;5.820;2024-01-30T03:12:24;11.60;;;5.43;;
84381;SDS011;74572;51.834;5.820;2024-01-30T03:14:50;7.57;;;4.40;;
84381;SDS011;74572;51.834;5.820;2024-01-30T03:17:16;13.77;;;5.10;;
84381;SDS011;74572;51.834;5.820;2024-01-30T03:19:42;8.98;;;4.80;;
84381;SDS011;74572;51.834;5.820;2024-01-30T03:22:08;8.18;;;5.00;;
84381;SDS011;74572;51.834;5.820;2024-01-30T03:24:33;11.98;;;5.68;;
84381;SDS011;74572;51.834;5.820;2024-01-30T03:26:58;8.13;;;4.38;;
84381;SDS011;74572;51.834;5.820;2024-01-30T03:29:24;9.77;;;5.00;;
84381;SDS011;74572;51.834;5.820;2024-01-30T03:31:51;7.38;;;4.22;;
84381;SDS011;74572;51.834;5.820;2024-01-30T03:34:17;12.65;;;5.45;;
84381;SDS011;74572;51.834;5.820;2024-01-30T03:36:42;9.88;;;5.68;;
84381;SDS011;74572;51.834;5.820;2024-01-30T03:39:08;10.85;;;5.75;;
84381;SDS011;74572;51.834;5.820;2024-01-30T03:41:33;8.55;;;4.68;;
84381;SDS011;74572;51.834;5.820;2024-01-30T03:43:59;10.30;;;4.78;;
84381;SDS011;74572;51.834;5.820;2024-01-30T03:46:24;9.07;;;4.93;;
84381;SDS011;74572;51.834;5.820;2024-01-30T03:48:50;12.75;;;4.85;;
84381;SDS011;74572;51.834;5.820;2024-01-30T03:51:15;10.80;;;5.15;;
84381;SDS011;74572;51.834;5.820;2024-01-30T03:53:44;10.95;;;5.80;;
84381;SDS011;74572;51.834;5.820;2024-01-30T03:56:12;11.38;;;5.45;;
84381;SDS011;74572;51.834;5.820;2024-01-30T03:58:40;9.75;;;5.30;;
84381;SDS011;74572;51.834;5.820;2024-01-30T04:01:06;12.00;;;5.68;;
84381;SDS011;74572;51.834;5.820;2024-01-30T04:03:32;9.18;;;5.00;;
84381;SDS011;74572;51.834;5.820;2024-01-30T04:05:58;8.63;;;5.18;;
84381;SDS011;74572;51.834;5.820;2024-01-30T04:08:27;10.60;;;5.72;;
84381;SDS011;74572;51.834;5.820;2024-01-30T04:10:52;8.60;;;5.15;;
84381;SDS011;74572;51.834;5.820;2024-01-30T04:13:17;11.93;;;5.30;;
84381;SDS011;74572;51.834;5.820;2024-01-30T04:15:44;10.10;;;5.25;;
84381;SDS011;74572;51.834;5.820;2024-01-30T04:18:09;9.40;;;4.97;;
84381;SDS011;74572;51.834;5.820;2024-01-30T04:20:35;8.57;;;4.78;;
84381;SDS011;74572;51.834;5.820;2024-01-30T04:23:02;11.38;;;5.75;;
84381;SDS011;74572;51.834;5.820;2024-01-30T04:25:28;11.13;;;5.68;;
84381;SDS011;74572;51.834;5.820;2024-01-30T04:27:54;10.17;;;4.63;;
84381;SDS011;74572;51.834;5.820;2024-01-30T04:30:19;11.38;;;6.32;;
84381;SDS011;74572;51.834;5.820;2024-01-30T04:32:45;10.00;;;5.38;;
84381;SDS011;74572;51.834;5.820;2024-01-30T04:35:10;9.98;;;6.07;;
84381;SDS011;74572;51.834;5.820;2024-01-30T04:37:36;9.80;;;6.10;;
84381;SDS011;74572;51.834;5.820;2024-01-30T04:40:02;12.82;;;5.15;;
84381;SDS011;74572;51.834;5.820;2024-01-30T04:42:28;9.20;;;4.97;;
84381;SDS011;74572;51.834;5.820;2024-01-30T04:44:53;10.18;;;5.25;;
84381;SDS011;74572;51.834;5.820;2024-01-30T04:47:19;9.23;;;5.30;;
84381;SDS011;74572;51.834;5.820;2024-01-30T04:49:44;7.30;;;3.92;;
84381;SDS011;74572;51.834;5.820;2024-01-30T04:52:09;7.82;;;3.65;;
84381;SDS011;74572;51.834;5.820;2024-01-30T04:54:35;9.40;;;5.20;;
84381;SDS011;74572;51.834;5.820;2024-01-30T04:57:02;11.18;;;4.43;;
84381;SDS011;74572;51.834;5.820;2024-01-30T04:59:28;9.20;;;5.45;;
84381;SDS011;74572;51.834;5.820;2024-01-30T05:01:53;10.02;;;5.25;;
84381;SDS011;74572;51.834;5.820;2024-01-30T05:04:19;9.63;;;4.63;;
84381;SDS011;74572;51.834;5.820;2024-01-30T05:06:45;8.18;;;4.68;;
84381;SDS011;74572;51.834;5.820;2024-01-30T05:09:12;11.27;;;5.45;;
84381;SDS011;74572;51.834;5.820;2024-01-30T05:11:38;10.02;;;4.63;;
84381;SDS011;74572;51.834;5.820;2024-01-30T05:14:07;7.75;;;4.47;;
84381;SDS011;74572;51.834;5.820;2024-01-30T05:16:33;6.80;;;3.95;;
84381;SDS011;74572;51.834;5.820;2024-01-30T05:18:59;9.73;;;4.75;;
84381;SDS011;74572;51.834;5.820;2024-01-30T05:21:24;10.18;;;5.68;;
84381;SDS011;74572;51.834;5.820;2024-01-30T05:23:50;7.93;;;4.57;;
84381;SDS011;74572;51.834;5.820;2024-01-30T05:26:16;8.48;;;3.97;;
84381;SDS011;74572;51.834;5.820;2024-01-30T05:28:41;6.85;;;4.35;;
84381;SDS011;74572;51.834;5.820;2024-01-30T05:31:09;12.23;;;4.97;;
84381;SDS011;74572;51.834;5.820;2024-01-30T05:33:35;10.75;;;4.45;;
84381;SDS011;74572;51.834;5.820;2024-01-30T05:36:00;7.97;;;4.50;;
84381;SDS011;74572;51.834;5.820;2024-01-30T05:38:26;9.77;;;5.30;;
84381;SDS011;74572;51.834;5.820;2024-01-30T05:40:52;10.50;;;4.40;;
84381;SDS011;74572;51.834;5.820;2024-01-30T05:43:17;7.80;;;4.13;;
84381;SDS011;74572;51.834;5.820;2024-01-30T05:45:43;8.70;;;4.40;;
84381;SDS011;74572;51.834;5.820;2024-01-30T05:48:08;10.18;;;4.13;;
84381;SDS011;74572;51.834;5.820;2024-01-30T05:50:33;8.37;;;4.37;;
84381;SDS011;74572;51.834;5.820;2024-01-30T05:52:59;9.75;;;4.65;;
84381;SDS011;74572;51.834;5.820;2024-01-30T05:55:25;9.55;;;4.30;;
84381;SDS011;74572;51.834;5.820;2024-01-30T05:57:51;7.93;;;4.05;;
84381;SDS011;74572;51.834;5.820;2024-01-30T06:00:17;8.82;;;4.50;;
84381;SDS011;74572;51.834;5.820;2024-01-30T06:02:43;8.05;;;4.57;;
84381;SDS011;74572;51.834;5.820;2024-01-30T06:05:08;6.55;;;4.13;;
84381;SDS011;74572;51.834;5.820;2024-01-30T06:07:34;8.82;;;4.78;;
84381;SDS011;74572;51.834;5.820;2024-01-30T06:09:59;7.70;;;4.25;;
84381;SDS011;74572;51.834;5.820;2024-01-30T06:12:27;7.90;;;4.07;;
84381;SDS011;74572;51.834;5.820;2024-01-30T06:14:53;6.13;;;3.42;;
84381;SDS011;74572;51.834;5.820;2024-01-30T06:17:22;9.43;;;4.43;;
84381;SDS011;74572;51.834;5.820;2024-01-30T06:19:48;6.82;;;3.47;;
84381;SDS011;74572;51.834;5.820;2024-01-30T06:22:13;8.77;;;4.38;;
84381;SDS011;74572;51.834;5.820;2024-01-30T06:24:38;7.25;;;3.75;;
84381;SDS011;74572;51.834;5.820;2024-01-30T06:27:04;7.72;;;4.15;;
84381;SDS011;74572;51.834;5.820;2024-01-30T06:29:30;7.30;;;4.35;;
84381;SDS011;74572;51.834;5.820;2024-01-30T06:31:55;8.13;;;4.65;;
84381;SDS011;74572;51.834;5.820;2024-01-30T06:34:22;9.57;;;4.35;;
84381;SDS011;74572;51.834;5.820;2024-01-30T06:36:47;7.28;;;3.85;;
84381;SDS011;74572;51.834;5.820;2024-01-30T06:39:13;5.88;;;4.00;;
84381;SDS011;74572;51.834;5.820;2024-01-30T06:41:38;7.03;;;3.78;;
84381;SDS011;74572;51.834;5.820;2024-01-30T06:44:03;8.47;;;3.50;;
84381;SDS011;74572;51.834;5.820;2024-01-30T06:46:31;8.38;;;4.57;;
84381;SDS011;74572;51.834;5.820;2024-01-30T06:48:57;6.03;;;3.55;;
84381;SDS011;74572;51.834;5.820;2024-01-30T06:51:23;10.10;;;4.20;;
84381;SDS011;74572;51.834;5.820;2024-01-30T06:53:49;5.47;;;3.40;;
84381;SDS011;74572;51.834;5.820;2024-01-30T06:56:15;8.00;;;4.00;;
84381;SDS011;74572;51.834;5.820;2024-01-30T06:58:45;7.80;;;4.28;;
84381;SDS011;74572;51.834;5.820;2024-01-30T07:01:11;6.55;;;4.63;;
84381;SDS011;74572;51.834;5.820;2024-01-30T07:03:36;9.18;;;4.50;;
84381;SDS011;74572;51.834;5.820;2024-01-30T07:06:02;7.20;;;4.55;;
84381;SDS011;74572;51.834;5.820;2024-01-30T07:08:28;8.55;;;4.00;;
84381;SDS011;74572;51.834;5.820;2024-01-30T07:10:54;7.72;;;3.88;;
84381;SDS011;74572;51.834;5.820;2024-01-30T07:13:20;8.68;;;4.38;;
84381;SDS011;74572;51.834;5.820;2024-01-30T07:15:45;9.75;;;4.50;;
84381;SDS011;74572;51.834;5.820;2024-01-30T07:18:11;9.02;;;4.97;;
84381;SDS011;74572;51.834;5.820;2024-01-30T07:20:38;7.55;;;3.97;;
84381;SDS011;74572;51.834;5.820;2024-01-30T07:23:11;8.77;;;4.45;;
84381;SDS011;74572;51.834;5.820;2024-01-30T07:25:39;8.73;;;4.20;;
84381;SDS011;74572;51.834;5.820;2024-01-30T07:28:06;11.43;;;4.70;;
84381;SDS011;74572;51.834;5.820;2024-01-30T07:30:33;6.50;;;3.70;;
84381;SDS011;74572;51.834;5.820;2024-01-30T07:32:59;9.35;;;4.05;;
84381;SDS011;74572;51.834;5.820;2024-01-30T07:35:24;7.57;;;4.05;;
84381;SDS011;74572;51.834;5.820;2024-01-30T07:37:49;7.47;;;4.10;;
84381;SDS011;74572;51.834;5.820;2024-01-30T07:40:15;9.52;;;4.32;;
84381;SDS011;74572;51.834;5.820;2024-01-30T07:42:41;8.82;;;4.28;;
84381;SDS011;74572;51.834;5.820;2024-01-30T07:45:07;7.60;;;4.18;;
84381;SDS011;74572;51.834;5.820;2024-01-30T07:47:33;6.72;;;4.45;;
84381;SDS011;74572;51.834;5.820;2024-01-30T07:49:58;8.82;;;4.85;;
84381;SDS011;74572;51.834;5.820;2024-01-30T07:52:24;7.93;;;3.75;;
84381;SDS011;74572;51.834;5.820;2024-01-30T07:54:50;7.30;;;4.57;;
84381;SDS011;74572;51.834;5.820;2024-01-30T07:57:16;7.53;;;4.72;;
84381;SDS011;74572;51.834;5.820;2024-01-30T07:59:43;6.82;;;3.72;;
84381;SDS011;74572;51.834;5.820;2024-01-30T08:02:09;7.82;;;4.50;;
84381;SDS011;74572;51.834;5.820;2024-01-30T08:04:35;7.32;;;3.25;;
84381;SDS011;74572;51.834;5.820;2024-01-30T08:07:01;7.30;;;3.95;;
84381;SDS011;74572;51.834;5.820;2024-01-30T08:09:28;8.38;;;4.15;;
84381;SDS011;74572;51.834;5.820;2024-01-30T08:11:53;8.93;;;4.63;;
84381;SDS011;74572;51.834;5.820;2024-01-30T08:14:19;8.18;;;3.80;;
84381;SDS011;74572;51.834;5.820;2024-01-30T08:16:44;5.85;;;3.42;;
84381;SDS011;74572;51.834;5.820;2024-01-30T08:19:10;8.38;;;4.18;;
84381;SDS011;74572;51.834;5.820;2024-01-30T08:21:35;7.93;;;4.25;;
84381;SDS011;74572;51.834;5.820;2024-01-30T08:24:04;8.73;;;4.50;;
84381;SDS011;74572;51.834;5.820;2024-01-30T08:26:33;7.53;;;4.55;;
84381;SDS011;74572;51.834;5.820;2024-01-30T08:29:00;7.00;;;4.47;;
84381;SDS011;74572;51.834;5.820;2024-01-30T08:31:26;8.65;;;4.88;;
84381;SDS011;74572;51.834;5.820;2024-01-30T08:33:51;6.18;;;3.90;;
84381;SDS011;74572;51.834;5.820;2024-01-30T08:36:17;11.35;;;4.03;;
84381;SDS011;74572;51.834;5.820;2024-01-30T08:38:43;7.03;;;3.53;;
84381;SDS011;74572;51.834;5.820;2024-01-30T08:41:09;11.82;;;5.10;;
84381;SDS011;74572;51.834;5.820;2024-01-30T08:43:34;5.13;;;3.22;;
84381;SDS011;74572;51.834;5.820;2024-01-30T08:46:01;6.43;;;3.10;;
84381;SDS011;74572;51.834;5.820;2024-01-30T08:48:28;9.02;;;4.85;;
84381;SDS011;74572;51.834;5.820;2024-01-30T08:50:54;7.85;;;4.80;;
84381;SDS011;74572;51.834;5.820;2024-01-30T08:53:19;6.53;;;3.47;;
84381;SDS011;74572;51.834;5.820;2024-01-30T08:55:45;7.28;;;3.47;;
84381;SDS011;74572;51.834;5.820;2024-01-30T08:58:12;6.80;;;3.78;;
84381;SDS011;74572;51.834;5.820;2024-01-30T09:00:37;6.68;;;3.60;;
84381;SDS011;74572;51.834;5.820;2024-01-30T09:03:04;6.80;;;3.70;;
84381;SDS011;74572;51.834;5.820;2024-01-30T09:05:29;8.75;;;4.15;;
84381;SDS011;74572;51.834;5.820;2024-01-30T09:07:55;6.68;;;3.67;;
84381;SDS011;74572;51.834;5.820;2024-01-30T09:10:21;8.30;;;4.07;;
84381;SDS011;74572;51.834;5.820;2024-01-30T09:12:47;7.05;;;3.88;;
84381;SDS011;74572;51.834;5.820;2024-01-30T09:15:14;8.18;;;4.07;;
84381;SDS011;74572;51.834;5.820;2024-01-30T09:17:39;7.40;;;4.18;;
84381;SDS011;74572;51.834;5.820;2024-01-30T09:20:05;10.68;;;4.50;;
84381;SDS011;74572;51.834;5.820;2024-01-30T09:22:31;8.18;;;3.83;;
84381;SDS011;74572;51.834;5.820;2024-01-30T09:24:57;9.20;;;3.58;;
84381;SDS011;74572;51.834;5.820;2024-01-30T09:27:23;9.52;;;4.53;;
84381;SDS011;74572;51.834;5.820;2024-01-30T09:29:49;9.02;;;4.50;;
84381;SDS011;74572;51.834;5.820;2024-01-30T09:32:14;7.68;;;3.80;;
84381;SDS011;74572;51.834;5.820;2024-01-30T09:34:40;5.32;;;3.85;;
84381;SDS011;74572;51.834;5.820;2024-01-30T09:37:07;9.52;;;4.53;;
84381;SDS011;74572;51.834;5.820;2024-01-30T09:39:34;7.20;;;3.95;;
84381;SDS011;74572;51.834;5.820;2024-01-30T09:44:28;10.68;;;4.88;;
84381;SDS011;74572;51.834;5.820;2024-01-30T09:46:54;7.22;;;3.67;;
84381;SDS011;74572;51.834;5.820;2024-01-30T09:49:20;6.57;;;4.18;;
84381;SDS011;74572;51.834;5.820;2024-01-30T09:51:50;9.25;;;4.38;;
84381;SDS011;74572;51.834;5.820;2024-01-30T09:54:17;7.97;;;4.07;;
84381;SDS011;74572;51.834;5.820;2024-01-30T09:56:44;8.18;;;4.40;;
84381;SDS011;74572;51.834;5.820;2024-01-30T09:59:10;7.78;;;3.90;;
84381;SDS011;74572;51.834;5.820;2024-01-30T10:01:36;5.60;;;3.45;;
84381;SDS011;74572;51.834;5.820;2024-01-30T10:04:01;8.25;;;4.00;;
84381;SDS011;74572;51.834;5.820;2024-01-30T10:06:27;7.32;;;4.15;;
84381;SDS011;74572;51.834;5.820;2024-01-30T10:08:53;8.40;;;4.57;;
84381;SDS011;74572;51.834;5.820;2024-01-30T10:11:18;10.23;;;4.85;;
84381;SDS011;74572;51.834;5.820;2024-01-30T10:13:43;7.80;;;3.85;;
84381;SDS011;74572;51.834;5.820;2024-01-30T10:16:09;9.30;;;4.70;;
84381;SDS011;74572;51.834;5.820;2024-01-30T10:18:34;6.10;;;3.50;;
84381;SDS011;74572;51.834;5.820;2024-01-30T10:21:00;10.07;;;4.60;;
84381;SDS011;74572;51.834;5.820;2024-01-30T10:23:25;7.43;;;3.95;;
84381;SDS011;74572;51.834;5.820;2024-01-30T10:25:51;7.60;;;4.10;;
84381;SDS011;74572;51.834;5.820;2024-01-30T10:28:17;7.35;;;4.30;;
84381;SDS011;74572;51.834;5.820;2024-01-30T10:30:43;6.47;;;4.15;;
84381;SDS011;74572;51.834;5.820;2024-01-30T10:33:08;8.68;;;4.55;;
84381;SDS011;74572;51.834;5.820;2024-01-30T10:35:34;9.93;;;4.32;;
84381;SDS011;74572;51.834;5.820;2024-01-30T10:38:00;8.45;;;4.53;;
84381;SDS011;74572;51.834;5.820;2024-01-30T10:40:29;7.82;;;4.05;;
84381;SDS011;74572;51.834;5.820;2024-01-30T10:42:55;7.75;;;4.55;;
84381;SDS011;74572;51.834;5.820;2024-01-30T10:45:21;7.60;;;4.25;;
84381;SDS011;74572;51.834;5.820;2024-01-30T10:47:52;9.32;;;4.53;;
84381;SDS011;74572;51.834;5.820;2024-01-30T10:50:21;10.15;;;4.20;;
84381;SDS011;74572;51.834;5.820;2024-01-30T10:52:49;7.63;;;4.10;;
84381;SDS011;74572;51.834;5.820;2024-01-30T10:55:16;8.60;;;4.68;;
84381;SDS011;74572;51.834;5.820;2024-01-30T10:57:43;7.25;;;3.80;;
84381;SDS011;74572;51.834;5.820;2024-01-30T11:00:10;12.02;;;3.72;;
84381;SDS011;74572;51.834;5.820;2024-01-30T11:02:41;8.00;;;5.13;;
84381;SDS011;74572;51.834;5.820;2024-01-30T11:05:10;6.80;;;3.45;;
84381;SDS011;74572;51.834;5.820;2024-01-30T11:07:38;6.65;;;3.88;;
84381;SDS011;74572;51.834;5.820;2024-01-30T11:10:04;8.52;;;3.50;;
84381;SDS011;74572;51.834;5.820;2024-01-30T11:12:37;6.13;;;3.30;;
84381;SDS011;74572;51.834;5.820;2024-01-30T11:17:51;7.43;;;3.50;;
84381;SDS011;74572;51.834;5.820;2024-01-30T11:20:29;10.43;;;4.15;;
84381;SDS011;74572;51.834;5.820;2024-01-30T11:23:00;9.27;;;3.70;;
84381;SDS011;74572;51.834;5.820;2024-01-30T11:25:31;8.75;;;4.38;;
84381;SDS011;74572;51.834;5.820;2024-01-30T11:27:57;7.40;;;3.47;;
84381;SDS011;74572;51.834;5.820;2024-01-30T11:30:26;11.25;;;3.65;;
84381;SDS011;74572;51.834;5.820;2024-01-30T11:35:33;8.88;;;4.50;;
84381;SDS011;74572;51.834;5.820;2024-01-30T11:38:05;7.22;;;3.90;;
84381;SDS011;74572;51.834;5.820;2024-01-30T11:40:33;6.22;;;3.60;;
84381;SDS011;74572;51.834;5.820;2024-01-30T11:43:01;8.88;;;4.32;;
84381;SDS011;74572;51.834;5.820;2024-01-30T11:45:29;8.43;;;4.22;;
84381;SDS011;74572;51.834;5.820;2024-01-30T11:47:55;6.80;;;4.00;;
84381;SDS011;74572;51.834;5.820;2024-01-30T11:50:21;7.88;;;3.55;;
84381;SDS011;74572;51.834;5.820;2024-01-30T11:52:47;8.80;;;3.78;;
84381;SDS011;74572;51.834;5.820;2024-01-30T11:55:13;4.25;;;3.08;;
84381;SDS011;74572;51.834;5.820;2024-01-30T11:57:41;7.38;;;3.88;;
84381;SDS011;74572;51.834;5.820;2024-01-30T12:00:13;5.85;;;3.33;;
84381;SDS011;74572;51.834;5.820;2024-01-30T12:02:40;10.40;;;4.03;;
84381;SDS011;74572;51.834;5.820;2024-01-30T12:05:06;3.97;;;3.00;;
84381;SDS011;74572;51.834;5.820;2024-01-30T12:07:32;4.50;;;2.35;;
84381;SDS011;74572;51.834;5.820;2024-01-30T12:09:58;5.22;;;3.00;;
84381;SDS011;74572;51.834;5.820;2024-01-30T12:12:25;5.28;;;3.60;;
84381;SDS011;74572;51.834;5.820;2024-01-30T12:14:51;9.35;;;3.88;;
84381;SDS011;74572;51.834;5.820;2024-01-30T12:17:23;7.43;;;3.47;;
84381;SDS011;74572;51.834;5.820;2024-01-30T12:22:39;5.38;;;3.00;;
84381;SDS011;74572;51.834;5.820;2024-01-30T12:25:08;9.27;;;3.47;;
84381;SDS011;74572;51.834;5.820;2024-01-30T12:27:35;7.05;;;3.20;;
84381;SDS011;74572;51.834;5.820;2024-01-30T12:30:01;8.63;;;3.40;;
84381;SDS011;74572;51.834;5.820;2024-01-30T12:32:30;8.32;;;3.35;;
84381;SDS011;74572;51.834;5.820;2024-01-30T12:34:56;5.65;;;2.55;;
84381;SDS011;74572;51.834;5.820;2024-01-30T12:37:24;3.60;;;2.75;;
84381;SDS011;74572;51.834;5.820;2024-01-30T12:39:51;6.18;;;2.55;;
84381;SDS011;74572;51.834;5.820;2024-01-30T12:42:19;4.43;;;2.42;;
84381;SDS011;74572;51.834;5.820;2024-01-30T12:44:46;3.42;;;1.90;;
84381;SDS011;74572;51.834;5.820;2024-01-30T12:47:12;2.67;;;1.92;;
84381;SDS011;74572;51.834;5.820;2024-01-30T12:49:38;3.65;;;1.60;;
84381;SDS011;74572;51.834;5.820;2024-01-30T12:52:03;4.00;;;1.20;;
84381;SDS011;74572;51.834;5.820;2024-01-30T12:54:29;3.58;;;1.40;;
84381;SDS011;74572;51.834;5.820;2024-01-30T12:56:54;7.03;;;1.58;;
84381;SDS011;74572;51.834;5.820;2024-01-30T12:59:22;3.08;;;1.02;;
84381;SDS011;74572;51.834;5.820;2024-01-30T13:01:48;4.03;;;1.63;;
84381;SDS011;74572;51.834;5.820;2024-01-30T13:04:13;2.72;;;1.33;;
84381;SDS011;74572;51.834;5.820;2024-01-30T13:06:40;2.67;;;1.10;;
84381;SDS011;74572;51.834;5.820;2024-01-30T13:09:06;1.98;;;0.90;;
84381;SDS011;74572;51.834;5.820;2024-01-30T13:11:31;4.45;;;1.13;;
84381;SDS011;74572;51.834;5.820;2024-01-30T13:13:57;2.17;;;0.80;;
84381;SDS011;74572;51.834;5.820;2024-01-30T13:16:22;1.52;;;0.70;;
84381;SDS011;74572;51.834;5.820;2024-01-30T13:18:51;2.13;;;0.60;;
84381;SDS011;74572;51.834;5.820;2024-01-30T13:21:16;3.30;;;0.70;;
84381;SDS011;74572;51.834;5.820;2024-01-30T13:23:42;2.20;;;0.70;;
84381;SDS011;74572;51.834;5.820;2024-01-30T13:26:08;2.25;;;0.63;;
84381;SDS011;74572;51.834;5.820;2024-01-30T13:28:34;2.15;;;0.57;;
84381;SDS011;74572;51.834;5.820;2024-01-30T13:30:59;0.60;;;0.38;;
84381;SDS011;74572;51.834;5.820;2024-01-30T13:33:26;3.72;;;0.63;;
84381;SDS011;74572;51.834;5.820;2024-01-30T13:35:51;1.10;;;0.70;;
84381;SDS011;74572;51.834;5.820;2024-01-30T13:38:18;2.40;;;0.40;;
84381;SDS011;74572;51.834;5.820;2024-01-30T13:40:43;0.50;;;0.30;;
84381;SDS011;74572;51.834;5.820;2024-01-30T13:43:08;1.88;;;0.55;;
84381;SDS011;74572;51.834;5.820;2024-01-30T13:45:34;3.20;;;0.68;;
84381;SDS011;74572;51.834;5.820;2024-01-30T13:48:00;2.95;;;0.50;;
84381;SDS011;74572;51.834;5.820;2024-01-30T13:50:28;2.22;;;0.35;;
84381;SDS011;74572;51.834;5.820;2024-01-30T13:52:53;1.48;;;0.32;;
84381;SDS011;74572;51.834;5.820;2024-01-30T13:55:19;1.17;;;0.20;;
84381;SDS011;74572;51.834;5.820;2024-01-30T13:57:44;1.23;;;0.40;;
84381;SDS011;74572;51.834;5.820;2024-01-30T14:00:10;1.00;;;0.35;;
84381;SDS011;74572;51.834;5.820;2024-01-30T14:02:36;0.85;;;0.45;;
84381;SDS011;74572;51.834;5.820;2024-01-30T14:05:01;1.98;;;0.82;;
84381;SDS011;74572;51.834;5.820;2024-01-30T14:07:29;2.60;;;0.43;;
84381;SDS011;74572;51.834;5.820;2024-01-30T14:09:54;3.92;;;0.85;;
84381;SDS011;74572;51.834;5.820;2024-01-30T14:12:20;1.92;;;0.82;;
84381;SDS011;74572;51.834;5.820;2024-01-30T14:14:46;3.38;;;1.10;;
84381;SDS011;74572;51.834;5.820;2024-01-30T14:17:12;5.68;;;1.45;;
84381;SDS011;74572;51.834;5.820;2024-01-30T14:19:37;5.75;;;1.80;;
84381;SDS011;74572;51.834;5.820;2024-01-30T14:22:04;4.63;;;1.85;;
84381;SDS011;74572;51.834;5.820;2024-01-30T14:24:29;3.40;;;1.70;;
84381;SDS011;74572;51.834;5.820;2024-01-30T14:26:57;4.47;;;1.85;;
84381;SDS011;74572;51.834;5.820;2024-01-30T14:29:22;8.55;;;2.90;;
84381;SDS011;74572;51.834;5.820;2024-01-30T14:31:48;6.30;;;2.40;;
84381;SDS011;74572;51.834;5.820;2024-01-30T14:34:14;5.90;;;2.50;;
84381;SDS011;74572;51.834;5.820;2024-01-30T14:36:40;8.80;;;2.65;;
84381;SDS011;74572;51.834;5.820;2024-01-30T14:39:13;6.85;;;2.83;;
84381;SDS011;74572;51.834;5.820;2024-01-30T14:41:39;5.85;;;2.50;;
84381;SDS011;74572;51.834;5.820;2024-01-30T14:44:05;6.22;;;2.50;;
84381;SDS011;74572;51.834;5.820;2024-01-30T14:46:30;3.10;;;2.10;;
84381;SDS011;74572;51.834;5.820;2024-01-30T14:48:56;8.35;;;3.08;;